sensor_id;sensor_type;location;lat;lon;timestamp;pressure;altitude;pressure_sealevel;temperature;humidity
65175;BME280;51761;42.126;24.752;2023-08-30T00:00:14;98420.06;;;24.64;86.19
65175;BME280;51761;42.126;24.752;2023-08-30T00:02:43;98433.59;;;24.64;83.98
65175;BME280;51761;42.126;24.752;2023-08-30T00:05:09;98433.78;;;24.53;82.95
65175;BME280;51761;42.126;24.752;2023-08-30T00:07:35;98413.38;;;24.30;85.77
65175;BME280;51761;42.126;24.752;2023-08-30T00:10:00;98411.97;;;24.37;86.47
65175;BME280;51761;42.126;24.752;2023-08-30T00:12:26;98430.22;;;24.47;83.21
65175;BME280;51761;42.126;24.752;2023-08-30T00:14:51;98404.19;;;24.37;86.34
65175;BME280;51761;42.126;24.752;2023-08-30T00:17:17;98398.72;;;24.39;82.94
65175;BME280;51761;42.126;24.752;2023-08-30T00:19:42;98399.25;;;24.38;84.80
65175;BME280;51761;42.126;24.752;2023-08-30T00:22:08;98395.72;;;24.32;83.67
65175;BME280;51761;42.126;24.752;2023-08-30T00:24:34;98423.53;;;24.44;82.80
65175;BME280;51761;42.126;24.752;2023-08-30T00:27:03;98426.16;;;24.42;81.58
65175;BME280;51761;42.126;24.752;2023-08-30T00:29:29;98428.22;;;24.29;81.89
65175;BME280;51761;42.126;24.752;2023-08-30T00:31:55;98434.09;;;24.18;83.11
65175;BME280;51761;42.126;24.752;2023-08-30T00:34:20;98433.97;;;24.11;81.94
65175;BME280;51761;42.126;24.752;2023-08-30T00:36:46;98410.41;;;23.92;84.94
65175;BME280;51761;42.126;24.752;2023-08-30T00:39:11;98430.03;;;23.95;82.77
65175;BME280;51761;42.126;24.752;2023-08-30T00:41:37;98428.59;;;23.89;82.05
65175;BME280;51761;42.126;24.752;2023-08-30T00:44:02;98422.66;;;23.68;83.03
65175;BME280;51761;42.126;24.752;2023-08-30T00:46:28;98423.38;;;23.56;81.50
65175;BME280;51761;42.126;24.752;2023-08-30T00:48:54;98444.06;;;23.56;83.16
65175;BME280;51761;42.126;24.752;2023-08-30T00:51:20;98436.09;;;23.55;80.46
65175;BME280;51761;42.126;24.752;2023-08-30T00:53:47;98429.66;;;23.49;82.84
65175;BME280;51761;42.126;24.752;2023-08-30T00:56:13;98435.69;;;23.45;83.26
65175;BME280;51761;42.126;24.752;2023-08-30T00:58:39;98436.53;;;23.59;87.14
65175;BME280;51761;42.126;24.752;2023-08-30T01:01:05;98433.91;;;23.61;87.09
65175;BME280;51761;42.126;24.752;2023-08-30T01:03:34;98426.56;;;23.65;84.40
65175;BME280;51761;42.126;24.752;2023-08-30T01:06:01;98440.06;;;23.65;82.58
65175;BME280;51761;42.126;24.752;2023-08-30T01:08:29;98438.31;;;23.62;80.81
65175;BME280;51761;42.126;24.752;2023-08-30T01:11:30;98445.78;;;23.65;85.73
65175;BME280;51761;42.126;24.752;2023-08-30T01:14:01;98435.97;;;23.60;80.74
65175;BME280;51761;42.126;24.752;2023-08-30T01:16:30;98452.63;;;23.75;84.46
65175;BME280;51761;42.126;24.752;2023-08-30T01:18:56;98449.59;;;23.67;82.09
65175;BME280;51761;42.126;24.752;2023-08-30T01:21:42;98456.09;;;23.68;82.90
65175;BME280;51761;42.126;24.752;2023-08-30T01:24:14;98436.53;;;23.59;84.02
65175;BME280;51761;42.126;24.752;2023-08-30T01:27:09;98458.31;;;23.75;83.24
65175;BME280;51761;42.126;24.752;2023-08-30T01:29:38;98433.28;;;23.68;80.80
65175;BME280;51761;42.126;24.752;2023-08-30T01:32:08;98457.97;;;23.84;79.78
65175;BME280;51761;42.126;24.752;2023-08-30T01:34:35;98449.16;;;23.82;80.68
65175;BME280;51761;42.126;24.752;2023-08-30T01:37:02;98451.53;;;23.78;78.53
65175;BME280;51761;42.126;24.752;2023-08-30T01:39:29;98449.66;;;23.86;79.02
65175;BME280;51761;42.126;24.752;2023-08-30T01:41:55;98448.94;;;23.98;82.84
65175;BME280;51761;42.126;24.752;2023-08-30T01:44:26;98452.94;;;24.08;83.90
65175;BME280;51761;42.126;24.752;2023-08-30T01:46:54;98467.88;;;24.14;80.97
65175;BME280;51761;42.126;24.752;2023-08-30T01:49:21;98471.75;;;23.98;78.82
65175;BME280;51761;42.126;24.752;2023-08-30T01:51:47;98470.34;;;24.05;82.69
65175;BME280;51761;42.126;24.752;2023-08-30T01:54:17;98457.44;;;23.85;80.46
65175;BME280;51761;42.126;24.752;2023-08-30T01:56:43;98475.28;;;24.04;78.32
65175;BME280;51761;42.126;24.752;2023-08-30T01:59:09;98485.63;;;24.07;79.40
65175;BME280;51761;42.126;24.752;2023-08-30T02:01:34;98459.56;;;23.98;81.19
65175;BME280;51761;42.126;24.752;2023-08-30T02:04:00;98487.91;;;24.09;79.14
65175;BME280;51761;42.126;24.752;2023-08-30T02:07:05;98482.13;;;24.14;82.21
65175;BME280;51761;42.126;24.752;2023-08-30T02:09:52;98477.44;;;24.17;80.76
65175;BME280;51761;42.126;24.752;2023-08-30T02:12:20;98477.09;;;24.20;80.70
65175;BME280;51761;42.126;24.752;2023-08-30T02:14:48;98468.66;;;24.15;78.04
65175;BME280;51761;42.126;24.752;2023-08-30T02:17:15;98467.13;;;24.14;78.41
65175;BME280;51761;42.126;24.752;2023-08-30T02:19:42;98461.09;;;23.99;80.69
65175;BME280;51761;42.126;24.752;2023-08-30T02:22:09;98449.03;;;23.93;82.74
65175;BME280;51761;42.126;24.752;2023-08-30T02:24:35;98468.06;;;24.03;82.10
65175;BME280;51761;42.126;24.752;2023-08-30T02:27:00;98440.31;;;23.85;76.33
65175;BME280;51761;42.126;24.752;2023-08-30T02:29:25;98466.50;;;24.02;78.70
65175;BME280;51761;42.126;24.752;2023-08-30T02:31:51;98456.13;;;23.86;79.38
65175;BME280;51761;42.126;24.752;2023-08-30T02:34:16;98444.06;;;23.75;80.85
65175;BME280;51761;42.126;24.752;2023-08-30T02:36:42;98470.56;;;23.70;76.35
65175;BME280;51761;42.126;24.752;2023-08-30T02:39:07;98469.50;;;23.54;76.92
65175;BME280;51761;42.126;24.752;2023-08-30T02:41:33;98468.94;;;23.37;76.54
65175;BME280;51761;42.126;24.752;2023-08-30T02:43:59;98465.31;;;23.37;80.27
65175;BME280;51761;42.126;24.752;2023-08-30T02:46:25;98465.09;;;23.35;81.95
65175;BME280;51761;42.126;24.752;2023-08-30T02:48:51;98474.38;;;23.17;78.68
65175;BME280;51761;42.126;24.752;2023-08-30T02:51:16;98469.75;;;23.14;84.53
65175;BME280;51761;42.126;24.752;2023-08-30T02:53:42;98472.88;;;23.10;80.26
65175;BME280;51761;42.126;24.752;2023-08-30T02:56:08;98459.53;;;23.00;78.95
65175;BME280;51761;42.126;24.752;2023-08-30T02:58:33;98458.22;;;23.01;81.23
65175;BME280;51761;42.126;24.752;2023-08-30T03:01:00;98482.44;;;23.13;81.04
65175;BME280;51761;42.126;24.752;2023-08-30T03:03:25;98485.75;;;23.17;81.95
65175;BME280;51761;42.126;24.752;2023-08-30T03:05:51;98491.56;;;23.30;80.08
65175;BME280;51761;42.126;24.752;2023-08-30T03:08:16;98486.41;;;23.28;86.65
65175;BME280;51761;42.126;24.752;2023-08-30T03:10:41;98490.13;;;23.42;85.15
65175;BME280;51761;42.126;24.752;2023-08-30T03:13:07;98486.50;;;23.41;82.00
65175;BME280;51761;42.126;24.752;2023-08-30T03:15:32;98485.00;;;23.59;84.36
65175;BME280;51761;42.126;24.752;2023-08-30T03:18:00;98495.44;;;23.51;80.74
65175;BME280;51761;42.126;24.752;2023-08-30T03:20:25;98497.16;;;23.59;82.49
65175;BME280;51761;42.126;24.752;2023-08-30T03:22:55;98499.00;;;23.57;83.21
65175;BME280;51761;42.126;24.752;2023-08-30T03:25:21;98499.16;;;23.64;81.45
65175;BME280;51761;42.126;24.752;2023-08-30T03:27:46;98501.00;;;23.62;82.97
65175;BME280;51761;42.126;24.752;2023-08-30T03:30:12;98504.56;;;23.68;82.76
65175;BME280;51761;42.126;24.752;2023-08-30T03:32:37;98497.16;;;23.59;82.12
65175;BME280;51761;42.126;24.752;2023-08-30T03:35:03;98511.97;;;23.76;81.37
65175;BME280;51761;42.126;24.752;2023-08-30T03:37:29;98513.50;;;23.77;82.05
65175;BME280;51761;42.126;24.752;2023-08-30T03:39:55;98511.06;;;23.87;82.78
65175;BME280;51761;42.126;24.752;2023-08-30T03:42:20;98511.31;;;23.89;82.51
65175;BME280;51761;42.126;24.752;2023-08-30T03:44:45;98493.63;;;23.72;77.94
65175;BME280;51761;42.126;24.752;2023-08-30T03:47:11;98528.41;;;23.89;77.89
65175;BME280;51761;42.126;24.752;2023-08-30T03:49:36;98529.09;;;23.95;79.04
65175;BME280;51761;42.126;24.752;2023-08-30T03:52:02;98520.78;;;23.97;80.44
65175;BME280;51761;42.126;24.752;2023-08-30T03:54:27;98499.75;;;23.81;77.65
65175;BME280;51761;42.126;24.752;2023-08-30T03:56:53;98525.16;;;23.98;81.76
65175;BME280;51761;42.126;24.752;2023-08-30T03:59:18;98511.16;;;23.81;78.31
65175;BME280;51761;42.126;24.752;2023-08-30T04:01:44;98532.88;;;23.84;81.35
65175;BME280;51761;42.126;24.752;2023-08-30T04:04:10;98525.63;;;23.83;78.99
65175;BME280;51761;42.126;24.752;2023-08-30T04:06:35;98537.88;;;23.97;83.78
65175;BME280;51761;42.126;24.752;2023-08-30T04:09:01;98529.09;;;23.95;80.90
65175;BME280;51761;42.126;24.752;2023-08-30T04:11:26;98553.16;;;24.18;81.03
65175;BME280;51761;42.126;24.752;2023-08-30T04:13:52;98549.75;;;24.19;78.17
65175;BME280;51761;42.126;24.752;2023-08-30T04:16:18;98549.66;;;24.24;79.06
65175;BME280;51761;42.126;24.752;2023-08-30T04:18:43;98556.84;;;24.31;78.46
65175;BME280;51761;42.126;24.752;2023-08-30T04:21:09;98547.88;;;24.40;78.40
65175;BME280;51761;42.126;24.752;2023-08-30T04:23:35;98551.84;;;24.50;79.82
65175;BME280;51761;42.126;24.752;2023-08-30T04:26:00;98532.44;;;24.48;77.52
65175;BME280;51761;42.126;24.752;2023-08-30T04:28:26;98544.16;;;24.63;76.47
65175;BME280;51761;42.126;24.752;2023-08-30T04:30:55;98554.16;;;24.70;74.27
65175;BME280;51761;42.126;24.752;2023-08-30T04:33:21;98559.16;;;24.82;77.08
65175;BME280;51761;42.126;24.752;2023-08-30T04:35:53;98530.69;;;24.77;76.81
65175;BME280;51761;42.126;24.752;2023-08-30T04:38:19;98552.28;;;25.04;74.78
65175;BME280;51761;42.126;24.752;2023-08-30T04:40:47;98546.47;;;25.09;74.96
65175;BME280;51761;42.126;24.752;2023-08-30T04:43:14;98546.25;;;25.07;71.05
65175;BME280;51761;42.126;24.752;2023-08-30T04:45:39;98544.63;;;25.12;73.69
65175;BME280;51761;42.126;24.752;2023-08-30T04:48:05;98556.38;;;25.21;70.72
65175;BME280;51761;42.126;24.752;2023-08-30T04:50:31;98547.47;;;25.12;70.59
65175;BME280;51761;42.126;24.752;2023-08-30T04:52:56;98546.59;;;25.17;74.09
65175;BME280;51761;42.126;24.752;2023-08-30T04:55:28;98550.63;;;25.08;71.38
65175;BME280;51761;42.126;24.752;2023-08-30T04:57:53;98548.31;;;25.07;72.87
65175;BME280;51761;42.126;24.752;2023-08-30T05:00:19;98527.22;;;24.97;72.51
65175;BME280;51761;42.126;24.752;2023-08-30T05:02:45;98550.94;;;25.05;69.82
65175;BME280;51761;42.126;24.752;2023-08-30T05:05:12;98557.31;;;24.98;71.14
65175;BME280;51761;42.126;24.752;2023-08-30T05:07:38;98550.38;;;24.93;70.71
65175;BME280;51761;42.126;24.752;2023-08-30T05:10:04;98543.03;;;24.98;71.76
65175;BME280;51761;42.126;24.752;2023-08-30T05:12:30;98544.13;;;24.95;71.47
65175;BME280;51761;42.126;24.752;2023-08-30T05:14:55;98534.25;;;24.96;72.71
65175;BME280;51761;42.126;24.752;2023-08-30T05:17:20;98543.59;;;25.09;72.01
65175;BME280;51761;42.126;24.752;2023-08-30T05:19:46;98564.00;;;25.19;71.70
65175;BME280;51761;42.126;24.752;2023-08-30T05:22:11;98564.00;;;25.32;69.83
65175;BME280;51761;42.126;24.752;2023-08-30T05:24:37;98564.00;;;25.45;69.46
65175;BME280;51761;42.126;24.752;2023-08-30T05:27:03;98564.78;;;25.58;68.52
65175;BME280;51761;42.126;24.752;2023-08-30T05:29:28;98566.09;;;25.70;68.18
65175;BME280;51761;42.126;24.752;2023-08-30T05:31:54;98572.34;;;25.82;68.27
65175;BME280;51761;42.126;24.752;2023-08-30T05:34:19;98559.03;;;25.71;68.54
65175;BME280;51761;42.126;24.752;2023-08-30T05:36:45;98577.44;;;25.89;66.11
65175;BME280;51761;42.126;24.752;2023-08-30T05:39:10;98564.56;;;25.82;66.03
65175;BME280;51761;42.126;24.752;2023-08-30T05:41:35;98572.50;;;25.89;68.55
65175;BME280;51761;42.126;24.752;2023-08-30T05:44:01;98579.28;;;26.12;65.76
65175;BME280;51761;42.126;24.752;2023-08-30T05:46:28;98585.44;;;26.16;67.25
65175;BME280;51761;42.126;24.752;2023-08-30T05:48:54;98582.03;;;26.04;63.94
65175;BME280;51761;42.126;24.752;2023-08-30T05:51:20;98584.41;;;26.26;68.15
65175;BME280;51761;42.126;24.752;2023-08-30T05:53:45;98573.94;;;26.29;66.92
65175;BME280;51761;42.126;24.752;2023-08-30T05:56:11;98569.63;;;26.35;65.46
65175;BME280;51761;42.126;24.752;2023-08-30T05:58:36;98596.75;;;26.68;64.41
65175;BME280;51761;42.126;24.752;2023-08-30T06:01:03;98602.31;;;26.53;64.52
65175;BME280;51761;42.126;24.752;2023-08-30T06:03:29;98590.22;;;26.34;64.91
65175;BME280;51761;42.126;24.752;2023-08-30T06:05:54;98584.09;;;26.17;67.38
65175;BME280;51761;42.126;24.752;2023-08-30T06:08:19;98574.09;;;26.10;66.64
65175;BME280;51761;42.126;24.752;2023-08-30T06:10:46;98605.03;;;26.12;67.14
65175;BME280;51761;42.126;24.752;2023-08-30T06:13:11;98597.56;;;25.96;67.55
65175;BME280;51761;42.126;24.752;2023-08-30T06:15:36;98594.06;;;25.90;68.62
65175;BME280;51761;42.126;24.752;2023-08-30T06:18:04;98582.81;;;25.66;68.64
65175;BME280;51761;42.126;24.752;2023-08-30T06:20:30;98601.84;;;25.77;68.63
65175;BME280;51761;42.126;24.752;2023-08-30T06:22:58;98600.16;;;26.66;65.85
65175;BME280;51761;42.126;24.752;2023-08-30T06:25:24;98588.28;;;28.00;62.38
65175;BME280;51761;42.126;24.752;2023-08-30T06:27:57;98579.28;;;29.04;57.11
65175;BME280;51761;42.126;24.752;2023-08-30T06:30:30;98596.66;;;29.88;55.05
65175;BME280;51761;42.126;24.752;2023-08-30T06:32:56;98597.19;;;30.17;53.39
65175;BME280;51761;42.126;24.752;2023-08-30T06:35:22;98591.84;;;30.60;52.88
65175;BME280;51761;42.126;24.752;2023-08-30T06:37:48;98601.44;;;30.95;49.38
65175;BME280;51761;42.126;24.752;2023-08-30T06:40:13;98604.69;;;30.99;50.29
65175;BME280;51761;42.126;24.752;2023-08-30T06:42:39;98618.75;;;31.26;50.97
65175;BME280;51761;42.126;24.752;2023-08-30T06:45:05;98618.22;;;31.62;50.82
65175;BME280;51761;42.126;24.752;2023-08-30T06:47:31;98615.44;;;31.96;48.41
65175;BME280;51761;42.126;24.752;2023-08-30T06:49:56;98626.00;;;32.35;46.40
65175;BME280;51761;42.126;24.752;2023-08-30T06:52:22;98623.25;;;32.54;47.58
65175;BME280;51761;42.126;24.752;2023-08-30T06:54:48;98621.13;;;32.71;47.02
65175;BME280;51761;42.126;24.752;2023-08-30T06:57:13;98625.38;;;32.70;46.15
65175;BME280;51761;42.126;24.752;2023-08-30T06:59:38;98621.25;;;32.90;45.55
65175;BME280;51761;42.126;24.752;2023-08-30T07:02:04;98626.31;;;32.99;46.94
65175;BME280;51761;42.126;24.752;2023-08-30T07:04:29;98627.22;;;32.58;46.83
65175;BME280;51761;42.126;24.752;2023-08-30T07:06:55;98623.97;;;33.14;46.61
65175;BME280;51761;42.126;24.752;2023-08-30T07:09:20;98620.09;;;33.29;45.36
65175;BME280;51761;42.126;24.752;2023-08-30T07:11:47;98605.34;;;33.34;44.83
65175;BME280;51761;42.126;24.752;2023-08-30T07:14:13;98623.47;;;33.35;43.99
65175;BME280;51761;42.126;24.752;2023-08-30T07:16:40;98617.22;;;33.29;44.85
65175;BME280;51761;42.126;24.752;2023-08-30T07:19:05;98617.31;;;33.67;44.00
65175;BME280;51761;42.126;24.752;2023-08-30T07:21:31;98616.94;;;33.80;42.89
65175;BME280;51761;42.126;24.752;2023-08-30T07:23:58;98632.28;;;34.37;42.12
65175;BME280;51761;42.126;24.752;2023-08-30T07:26:23;98632.13;;;34.54;41.33
65175;BME280;51761;42.126;24.752;2023-08-30T07:28:49;98611.06;;;34.25;40.12
65175;BME280;51761;42.126;24.752;2023-08-30T07:31:14;98617.16;;;34.67;40.73
65175;BME280;51761;42.126;24.752;2023-08-30T07:33:43;98635.56;;;35.19;39.84
65175;BME280;51761;42.126;24.752;2023-08-30T07:36:09;98608.72;;;34.90;37.35
65175;BME280;51761;42.126;24.752;2023-08-30T07:38:34;98622.81;;;34.27;39.57
65175;BME280;51761;42.126;24.752;2023-08-30T07:41:00;98624.97;;;33.72;41.03
65175;BME280;51761;42.126;24.752;2023-08-30T07:43:26;98620.31;;;33.40;41.59
65175;BME280;51761;42.126;24.752;2023-08-30T07:45:51;98616.28;;;33.00;43.88
65175;BME280;51761;42.126;24.752;2023-08-30T07:48:17;98627.13;;;32.83;42.62
65175;BME280;51761;42.126;24.752;2023-08-30T07:50:42;98624.56;;;33.13;42.31
65175;BME280;51761;42.126;24.752;2023-08-30T07:53:08;98610.31;;;33.24;41.40
65175;BME280;51761;42.126;24.752;2023-08-30T07:55:35;98621.00;;;33.31;42.04
65175;BME280;51761;42.126;24.752;2023-08-30T07:58:01;98631.16;;;32.96;42.16
65175;BME280;51761;42.126;24.752;2023-08-30T08:00:28;98627.41;;;32.77;43.97
65175;BME280;51761;42.126;24.752;2023-08-30T08:02:54;98623.75;;;33.03;43.63
65175;BME280;51761;42.126;24.752;2023-08-30T08:05:19;98627.41;;;33.30;41.59
65175;BME280;51761;42.126;24.752;2023-08-30T08:07:45;98620.13;;;33.12;42.56
65175;BME280;51761;42.126;24.752;2023-08-30T08:10:11;98618.47;;;33.35;42.30
65175;BME280;51761;42.126;24.752;2023-08-30T08:12:36;98612.84;;;33.83;39.95
65175;BME280;51761;42.126;24.752;2023-08-30T08:15:02;98605.53;;;34.01;38.90
65175;BME280;51761;42.126;24.752;2023-08-30T08:17:28;98590.75;;;34.16;39.02
65175;BME280;51761;42.126;24.752;2023-08-30T08:19:54;98598.50;;;33.85;39.73
65175;BME280;51761;42.126;24.752;2023-08-30T08:22:20;98610.66;;;33.02;42.90
65175;BME280;51761;42.126;24.752;2023-08-30T08:24:45;98619.34;;;32.08;45.26
65175;BME280;51761;42.126;24.752;2023-08-30T08:27:12;98615.66;;;32.75;42.26
65175;BME280;51761;42.126;24.752;2023-08-30T08:29:38;98599.28;;;32.87;41.66
65175;BME280;51761;42.126;24.752;2023-08-30T08:32:03;98613.25;;;32.81;42.33
65175;BME280;51761;42.126;24.752;2023-08-30T08:34:29;98606.47;;;33.48;40.40
65175;BME280;51761;42.126;24.752;2023-08-30T08:36:55;98590.63;;;33.49;40.12
65175;BME280;51761;42.126;24.752;2023-08-30T08:39:20;98600.53;;;33.56;41.63
65175;BME280;51761;42.126;24.752;2023-08-30T08:41:46;98591.59;;;33.71;41.57
65175;BME280;51761;42.126;24.752;2023-08-30T08:44:12;98569.31;;;33.64;39.90
65175;BME280;51761;42.126;24.752;2023-08-30T08:46:40;98587.22;;;33.89;41.04
65175;BME280;51761;42.126;24.752;2023-08-30T08:49:11;98586.47;;;34.07;38.51
65175;BME280;51761;42.126;24.752;2023-08-30T08:51:37;98580.88;;;34.19;39.09
65175;BME280;51761;42.126;24.752;2023-08-30T08:54:04;98583.28;;;34.13;40.45
65175;BME280;51761;42.126;24.752;2023-08-30T08:56:35;98579.16;;;34.16;40.66
65175;BME280;51761;42.126;24.752;2023-08-30T08:59:02;98561.00;;;34.15;41.67
65175;BME280;51761;42.126;24.752;2023-08-30T09:01:28;98573.06;;;34.31;40.67
65175;BME280;51761;42.126;24.752;2023-08-30T09:03:54;98563.47;;;34.38;38.96
65175;BME280;51761;42.126;24.752;2023-08-30T09:06:21;98578.06;;;34.58;38.65
65175;BME280;51761;42.126;24.752;2023-08-30T09:08:46;98576.22;;;34.91;37.46
65175;BME280;51761;42.126;24.752;2023-08-30T09:11:12;98568.41;;;34.84;38.10
65175;BME280;51761;42.126;24.752;2023-08-30T09:13:37;98573.50;;;34.74;40.22
65175;BME280;51761;42.126;24.752;2023-08-30T09:16:11;98564.50;;;34.04;40.27
65175;BME280;51761;42.126;24.752;2023-08-30T09:18:37;98559.50;;;34.05;38.57
65175;BME280;51761;42.126;24.752;2023-08-30T09:21:07;98554.44;;;34.15;38.43
65175;BME280;51761;42.126;24.752;2023-08-30T09:23:32;98560.25;;;34.43;38.43
65175;BME280;51761;42.126;24.752;2023-08-30T09:25:59;98561.47;;;34.31;38.83
65175;BME280;51761;42.126;24.752;2023-08-30T09:28:25;98547.91;;;34.24;40.33
65175;BME280;51761;42.126;24.752;2023-08-30T09:30:54;98555.22;;;34.44;39.68
65175;BME280;51761;42.126;24.752;2023-08-30T09:33:21;98527.75;;;34.45;39.45
65175;BME280;51761;42.126;24.752;2023-08-30T09:35:47;98526.66;;;34.50;40.32
65175;BME280;51761;42.126;24.752;2023-08-30T09:38:19;98540.47;;;34.89;39.18
65175;BME280;51761;42.126;24.752;2023-08-30T09:40:45;98537.47;;;34.58;36.59
65175;BME280;51761;42.126;24.752;2023-08-30T09:43:18;98528.50;;;35.04;36.73
65175;BME280;51761;42.126;24.752;2023-08-30T09:45:44;98526.81;;;35.01;37.65
65175;BME280;51761;42.126;24.752;2023-08-30T09:48:10;98533.59;;;34.84;38.61
65175;BME280;51761;42.126;24.752;2023-08-30T09:50:36;98518.19;;;34.91;35.57
65175;BME280;51761;42.126;24.752;2023-08-30T09:53:11;98503.72;;;34.82;36.54
65175;BME280;51761;42.126;24.752;2023-08-30T09:55:40;98531.13;;;34.13;37.70
65175;BME280;51761;42.126;24.752;2023-08-30T09:58:07;98508.06;;;34.15;39.40
65175;BME280;51761;42.126;24.752;2023-08-30T10:00:33;98510.06;;;34.41;38.21
65175;BME280;51761;42.126;24.752;2023-08-30T10:02:59;98532.72;;;34.82;38.29
65175;BME280;51761;42.126;24.752;2023-08-30T10:05:26;98528.56;;;35.25;35.19
65175;BME280;51761;42.126;24.752;2023-08-30T10:07:52;98505.88;;;35.12;36.41
65175;BME280;51761;42.126;24.752;2023-08-30T10:10:19;98524.28;;;35.26;34.79
65175;BME280;51761;42.126;24.752;2023-08-30T10:12:46;98502.53;;;34.66;35.12
65175;BME280;51761;42.126;24.752;2023-08-30T10:15:11;98514.66;;;34.93;35.70
65175;BME280;51761;42.126;24.752;2023-08-30T10:17:38;98501.34;;;34.99;34.61
65175;BME280;51761;42.126;24.752;2023-08-30T10:20:07;98515.94;;;35.41;33.60
65175;BME280;51761;42.126;24.752;2023-08-30T10:22:35;98496.09;;;35.07;34.79
65175;BME280;51761;42.126;24.752;2023-08-30T10:25:05;98510.53;;;34.86;35.64
65175;BME280;51761;42.126;24.752;2023-08-30T10:27:34;98508.25;;;34.94;35.58
65175;BME280;51761;42.126;24.752;2023-08-30T10:30:01;98507.84;;;34.79;37.36
65175;BME280;51761;42.126;24.752;2023-08-30T10:32:28;98499.25;;;34.90;37.09
65175;BME280;51761;42.126;24.752;2023-08-30T10:34:54;98501.91;;;35.07;36.98
65175;BME280;51761;42.126;24.752;2023-08-30T10:37:24;98501.22;;;34.88;35.79
65175;BME280;51761;42.126;24.752;2023-08-30T10:39:49;98499.97;;;35.00;35.33
65175;BME280;51761;42.126;24.752;2023-08-30T10:42:16;98492.63;;;34.99;34.21
65175;BME280;51761;42.126;24.752;2023-08-30T10:44:58;98506.31;;;35.18;35.81
65175;BME280;51761;42.126;24.752;2023-08-30T10:47:26;98482.41;;;34.98;35.42
65175;BME280;51761;42.126;24.752;2023-08-30T10:49:59;98479.47;;;34.58;34.65
65175;BME280;51761;42.126;24.752;2023-08-30T10:52:29;98483.28;;;34.61;35.16
65175;BME280;51761;42.126;24.752;2023-08-30T10:55:10;98469.78;;;34.26;37.84
65175;BME280;51761;42.126;24.752;2023-08-30T10:57:37;98460.84;;;33.93;37.09
65175;BME280;51761;42.126;24.752;2023-08-30T11:02:38;98473.63;;;34.28;34.81
65175;BME280;51761;42.126;24.752;2023-08-30T11:05:06;98468.66;;;34.68;35.34
65175;BME280;51761;42.126;24.752;2023-08-30T11:07:32;98470.25;;;34.32;36.57
65175;BME280;51761;42.126;24.752;2023-08-30T11:09:58;98467.81;;;34.09;37.26
65175;BME280;51761;42.126;24.752;2023-08-30T11:12:24;98478.34;;;34.05;36.09
65175;BME280;51761;42.126;24.752;2023-08-30T11:14:52;98464.94;;;33.81;36.99
65175;BME280;51761;42.126;24.752;2023-08-30T11:17:19;98473.91;;;34.23;37.14
65175;BME280;51761;42.126;24.752;2023-08-30T11:19:45;98458.69;;;33.65;37.06
65175;BME280;51761;42.126;24.752;2023-08-30T11:22:12;98466.91;;;33.97;36.11
65175;BME280;51761;42.126;24.752;2023-08-30T11:24:39;98433.38;;;33.75;36.94
65175;BME280;51761;42.126;24.752;2023-08-30T11:27:05;98454.81;;;33.25;40.15
65175;BME280;51761;42.126;24.752;2023-08-30T11:29:31;98455.75;;;32.91;39.57
65175;BME280;51761;42.126;24.752;2023-08-30T11:31:57;98462.91;;;32.55;40.06
65175;BME280;51761;42.126;24.752;2023-08-30T11:34:22;98439.84;;;32.38;41.29
65175;BME280;51761;42.126;24.752;2023-08-30T11:36:49;98455.22;;;32.40;41.61
65175;BME280;51761;42.126;24.752;2023-08-30T11:39:18;98438.03;;;32.16;43.77
65175;BME280;51761;42.126;24.752;2023-08-30T11:41:44;98450.84;;;32.22;44.79
65175;BME280;51761;42.126;24.752;2023-08-30T11:44:09;98437.72;;;32.38;44.77
65175;BME280;51761;42.126;24.752;2023-08-30T11:46:35;98436.16;;;32.64;41.83
65175;BME280;51761;42.126;24.752;2023-08-30T11:49:01;98415.81;;;32.45;42.79
65175;BME280;51761;42.126;24.752;2023-08-30T11:51:28;98431.88;;;32.65;42.39
65175;BME280;51761;42.126;24.752;2023-08-30T11:53:55;98411.38;;;32.34;42.97
65175;BME280;51761;42.126;24.752;2023-08-30T11:56:21;98404.91;;;32.88;40.43
65175;BME280;51761;42.126;24.752;2023-08-30T11:58:48;98431.38;;;33.49;42.67
65175;BME280;51761;42.126;24.752;2023-08-30T12:01:13;98423.91;;;33.37;40.98
65175;BME280;51761;42.126;24.752;2023-08-30T12:03:39;98431.38;;;33.40;42.92
65175;BME280;51761;42.126;24.752;2023-08-30T12:06:11;98422.38;;;33.36;40.30
65175;BME280;51761;42.126;24.752;2023-08-30T12:08:37;98426.81;;;33.46;39.73
65175;BME280;51761;42.126;24.752;2023-08-30T12:11:03;98427.41;;;33.45;39.50
65175;BME280;51761;42.126;24.752;2023-08-30T12:13:30;98407.63;;;33.51;39.18
65175;BME280;51761;42.126;24.752;2023-08-30T12:15:57;98412.47;;;33.20;40.91
65175;BME280;51761;42.126;24.752;2023-08-30T12:18:31;98393.59;;;33.19;39.78
65175;BME280;51761;42.126;24.752;2023-08-30T12:21:03;98412.81;;;33.81;38.88
65175;BME280;51761;42.126;24.752;2023-08-30T12:23:30;98415.84;;;33.64;39.49
65175;BME280;51761;42.126;24.752;2023-08-30T12:26:04;98392.22;;;33.58;41.87
65175;BME280;51761;42.126;24.752;2023-08-30T12:28:34;98393.91;;;33.61;41.08
65175;BME280;51761;42.126;24.752;2023-08-30T12:31:00;98393.28;;;33.72;39.78
65175;BME280;51761;42.126;24.752;2023-08-30T12:33:27;98381.25;;;33.75;38.50
65175;BME280;51761;42.126;24.752;2023-08-30T12:35:54;98369.22;;;33.79;38.25
65175;BME280;51761;42.126;24.752;2023-08-30T12:38:20;98389.13;;;34.53;38.92
65175;BME280;51761;42.126;24.752;2023-08-30T12:40:51;98373.94;;;34.73;37.29
65175;BME280;51761;42.126;24.752;2023-08-30T12:43:18;98378.59;;;34.87;36.67
65175;BME280;51761;42.126;24.752;2023-08-30T12:45:45;98364.22;;;35.20;34.64
65175;BME280;51761;42.126;24.752;2023-08-30T12:48:11;98380.13;;;35.61;33.91
65175;BME280;51761;42.126;24.752;2023-08-30T12:50:38;98357.94;;;35.56;34.39